sensor_id;sensor_type;location;lat;lon;timestamp;temperature;humidity
26164;DHT22;13914;48.178;11.716;2022-07-06T00:01:43;18.40;55.00
26164;DHT22;13914;48.178;11.716;2022-07-06T00:04:09;18.30;55.00
26164;DHT22;13914;48.178;11.716;2022-07-06T00:06:35;18.30;55.10
26164;DHT22;13914;48.178;11.716;2022-07-06T00:09:02;18.30;55.10
26164;DHT22;13914;48.178;11.716;2022-07-06T00:11:28;18.30;55.00
26164;DHT22;13914;48.178;11.716;2022-07-06T00:13:55;18.20;55.20
26164;DHT22;13914;48.178;11.716;2022-07-06T00:16:22;18.30;55.10
26164;DHT22;13914;48.178;11.716;2022-07-06T00:18:48;18.30;55.10
26164;DHT22;13914;48.178;11.716;2022-07-06T00:21:14;18.30;55.10
26164;DHT22;13914;48.178;11.716;2022-07-06T00:23:39;18.20;55.30
26164;DHT22;13914;48.178;11.716;2022-07-06T00:26:07;18.20;55.20
26164;DHT22;13914;48.178;11.716;2022-07-06T00:28:32;18.20;55.20
26164;DHT22;13914;48.178;11.716;2022-07-06T00:30:58;18.20;55.20
26164;DHT22;13914;48.178;11.716;2022-07-06T00:33:24;18.20;55.20
26164;DHT22;13914;48.178;11.716;2022-07-06T00:35:50;18.20;55.40
26164;DHT22;13914;48.178;11.716;2022-07-06T00:38:16;18.20;55.30
26164;DHT22;13914;48.178;11.716;2022-07-06T00:40:42;18.20;55.40
26164;DHT22;13914;48.178;11.716;2022-07-06T00:43:08;18.10;55.50
26164;DHT22;13914;48.178;11.716;2022-07-06T00:45:34;18.10;55.40
26164;DHT22;13914;48.178;11.716;2022-07-06T00:48:00;18.10;55.60
26164;DHT22;13914;48.178;11.716;2022-07-06T00:50:26;18.10;55.60
26164;DHT22;13914;48.178;11.716;2022-07-06T00:53:00;18.10;55.70
26164;DHT22;13914;48.178;11.716;2022-07-06T00:55:29;18.10;55.70
26164;DHT22;13914;48.178;11.716;2022-07-06T00:57:57;18.00;55.60
26164;DHT22;13914;48.178;11.716;2022-07-06T01:00:26;18.00;55.70
26164;DHT22;13914;48.178;11.716;2022-07-06T01:02:53;18.00;55.80
26164;DHT22;13914;48.178;11.716;2022-07-06T01:05:19;17.90;55.50
26164;DHT22;13914;48.178;11.716;2022-07-06T01:07:47;17.90;55.70
26164;DHT22;13914;48.178;11.716;2022-07-06T01:10:16;17.90;55.80
26164;DHT22;13914;48.178;11.716;2022-07-06T01:12:44;17.90;55.90
26164;DHT22;13914;48.178;11.716;2022-07-06T01:15:19;17.80;55.70
26164;DHT22;13914;48.178;11.716;2022-07-06T01:17:47;17.80;55.80
26164;DHT22;13914;48.178;11.716;2022-07-06T01:20:23;17.80;55.80
26164;DHT22;13914;48.178;11.716;2022-07-06T01:22:51;17.80;55.80
26164;DHT22;13914;48.178;11.716;2022-07-06T01:25:19;17.70;55.80
26164;DHT22;13914;48.178;11.716;2022-07-06T01:27:45;17.70;55.90
26164;DHT22;13914;48.178;11.716;2022-07-06T01:30:14;17.70;56.00
26164;DHT22;13914;48.178;11.716;2022-07-06T01:32:41;17.70;56.10
26164;DHT22;13914;48.178;11.716;2022-07-06T01:35:09;17.60;56.10
26164;DHT22;13914;48.178;11.716;2022-07-06T01:37:36;17.60;56.10
26164;DHT22;13914;48.178;11.716;2022-07-06T01:40:05;17.60;56.20
26164;DHT22;13914;48.178;11.716;2022-07-06T01:42:32;17.60;56.40
26164;DHT22;13914;48.178;11.716;2022-07-06T01:44:58;17.50;57.00
26164;DHT22;13914;48.178;11.716;2022-07-06T01:47:24;17.50;56.30
26164;DHT22;13914;48.178;11.716;2022-07-06T01:49:50;17.50;56.40
26164;DHT22;13914;48.178;11.716;2022-07-06T01:52:17;17.50;56.60
26164;DHT22;13914;48.178;11.716;2022-07-06T01:54:42;17.40;56.60
26164;DHT22;13914;48.178;11.716;2022-07-06T01:57:08;17.40;56.60
26164;DHT22;13914;48.178;11.716;2022-07-06T01:59:34;17.40;56.40
26164;DHT22;13914;48.178;11.716;2022-07-06T02:02:00;17.40;56.70
26164;DHT22;13914;48.178;11.716;2022-07-06T02:04:26;17.30;56.80
26164;DHT22;13914;48.178;11.716;2022-07-06T02:06:52;17.30;56.70
26164;DHT22;13914;48.178;11.716;2022-07-06T02:09:18;17.30;56.70
26164;DHT22;13914;48.178;11.716;2022-07-06T02:11:44;17.20;56.60
26164;DHT22;13914;48.178;11.716;2022-07-06T02:14:10;17.20;56.80
26164;DHT22;13914;48.178;11.716;2022-07-06T02:16:36;17.20;56.70
26164;DHT22;13914;48.178;11.716;2022-07-06T02:19:02;17.20;56.70
26164;DHT22;13914;48.178;11.716;2022-07-06T02:21:28;17.10;56.90
26164;DHT22;13914;48.178;11.716;2022-07-06T02:23:54;17.10;56.90
26164;DHT22;13914;48.178;11.716;2022-07-06T02:26:20;17.10;57.10
26164;DHT22;13914;48.178;11.716;2022-07-06T02:28:46;17.10;57.00
26164;DHT22;13914;48.178;11.716;2022-07-06T02:31:16;17.00;56.90
26164;DHT22;13914;48.178;11.716;2022-07-06T02:33:42;17.00;57.10
26164;DHT22;13914;48.178;11.716;2022-07-06T02:36:07;17.00;57.30
26164;DHT22;13914;48.178;11.716;2022-07-06T02:38:33;17.00;57.00
26164;DHT22;13914;48.178;11.716;2022-07-06T02:40:59;16.90;57.20
26164;DHT22;13914;48.178;11.716;2022-07-06T02:43:25;16.90;57.20
26164;DHT22;13914;48.178;11.716;2022-07-06T02:45:51;16.90;57.50
26164;DHT22;13914;48.178;11.716;2022-07-06T02:48:17;16.80;57.30
26164;DHT22;13914;48.178;11.716;2022-07-06T02:50:45;16.80;57.50
26164;DHT22;13914;48.178;11.716;2022-07-06T02:53:10;16.80;57.30
26164;DHT22;13914;48.178;11.716;2022-07-06T02:55:36;16.80;57.60
26164;DHT22;13914;48.178;11.716;2022-07-06T02:58:02;16.80;57.50
26164;DHT22;13914;48.178;11.716;2022-07-06T03:00:28;16.80;57.50
26164;DHT22;13914;48.178;11.716;2022-07-06T03:02:54;16.70;57.40
26164;DHT22;13914;48.178;11.716;2022-07-06T03:05:20;16.70;57.50
26164;DHT22;13914;48.178;11.716;2022-07-06T03:07:45;16.60;57.50
26164;DHT22;13914;48.178;11.716;2022-07-06T03:10:11;16.60;57.70
26164;DHT22;13914;48.178;11.716;2022-07-06T03:12:37;16.60;57.60
26164;DHT22;13914;48.178;11.716;2022-07-06T03:15:03;16.60;57.60
26164;DHT22;13914;48.178;11.716;2022-07-06T03:17:29;16.60;57.60
26164;DHT22;13914;48.178;11.716;2022-07-06T03:19:55;16.60;57.80
26164;DHT22;13914;48.178;11.716;2022-07-06T03:22:21;16.50;57.70
26164;DHT22;13914;48.178;11.716;2022-07-06T03:24:48;16.50;57.80
26164;DHT22;13914;48.178;11.716;2022-07-06T03:27:15;16.40;57.70
26164;DHT22;13914;48.178;11.716;2022-07-06T03:29:40;16.50;58.00
26164;DHT22;13914;48.178;11.716;2022-07-06T03:32:06;16.40;57.80
26164;DHT22;13914;48.178;11.716;2022-07-06T03:34:32;16.40;57.90
26164;DHT22;13914;48.178;11.716;2022-07-06T03:36:58;16.40;57.90
26164;DHT22;13914;48.178;11.716;2022-07-06T03:39:24;16.40;57.90
26164;DHT22;13914;48.178;11.716;2022-07-06T03:41:50;16.30;58.00
26164;DHT22;13914;48.178;11.716;2022-07-06T03:44:15;16.40;58.00
26164;DHT22;13914;48.178;11.716;2022-07-06T03:46:41;16.30;57.90
26164;DHT22;13914;48.178;11.716;2022-07-06T03:49:08;16.30;58.10
26164;DHT22;13914;48.178;11.716;2022-07-06T03:51:34;16.30;58.20
26164;DHT22;13914;48.178;11.716;2022-07-06T03:53:59;16.30;58.10
26164;DHT22;13914;48.178;11.716;2022-07-06T03:56:25;16.20;58.10
26164;DHT22;13914;48.178;11.716;2022-07-06T03:58:55;16.20;58.20
26164;DHT22;13914;48.178;11.716;2022-07-06T04:01:21;16.20;58.20
26164;DHT22;13914;48.178;11.716;2022-07-06T04:03:47;16.20;58.20
26164;DHT22;13914;48.178;11.716;2022-07-06T04:06:13;16.20;58.20
26164;DHT22;13914;48.178;11.716;2022-07-06T04:08:39;16.20;58.20
26164;DHT22;13914;48.178;11.716;2022-07-06T04:11:05;16.20;58.30
26164;DHT22;13914;48.178;11.716;2022-07-06T04:13:31;16.20;58.30
26164;DHT22;13914;48.178;11.716;2022-07-06T04:15:57;16.10;58.20
26164;DHT22;13914;48.178;11.716;2022-07-06T04:18:23;16.10;58.00
26164;DHT22;13914;48.178;11.716;2022-07-06T04:20:49;16.10;58.80
26164;DHT22;13914;48.178;11.716;2022-07-06T04:23:15;16.10;58.40
26164;DHT22;13914;48.178;11.716;2022-07-06T04:25:41;16.10;58.40
26164;DHT22;13914;48.178;11.716;2022-07-06T04:28:07;16.10;59.80
26164;DHT22;13914;48.178;11.716;2022-07-06T04:30:33;16.10;58.90
26164;DHT22;13914;48.178;11.716;2022-07-06T04:32:59;16.10;58.70
26164;DHT22;13914;48.178;11.716;2022-07-06T04:35:24;16.10;59.50
26164;DHT22;13914;48.178;11.716;2022-07-06T04:37:50;16.10;59.90
26164;DHT22;13914;48.178;11.716;2022-07-06T04:40:16;16.20;58.70
26164;DHT22;13914;48.178;11.716;2022-07-06T04:42:42;16.30;59.40
26164;DHT22;13914;48.178;11.716;2022-07-06T04:45:09;16.20;59.20
26164;DHT22;13914;48.178;11.716;2022-07-06T04:47:35;16.20;59.50
26164;DHT22;13914;48.178;11.716;2022-07-06T04:50:02;16.20;59.30
26164;DHT22;13914;48.178;11.716;2022-07-06T04:52:29;16.30;59.60
26164;DHT22;13914;48.178;11.716;2022-07-06T04:54:55;16.30;59.80
26164;DHT22;13914;48.178;11.716;2022-07-06T04:57:21;16.30;60.20
26164;DHT22;13914;48.178;11.716;2022-07-06T04:59:47;16.30;59.40
26164;DHT22;13914;48.178;11.716;2022-07-06T05:02:13;16.40;59.40
26164;DHT22;13914;48.178;11.716;2022-07-06T05:04:39;16.40;60.00
26164;DHT22;13914;48.178;11.716;2022-07-06T05:07:05;16.40;59.90
26164;DHT22;13914;48.178;11.716;2022-07-06T05:09:31;16.50;59.30
26164;DHT22;13914;48.178;11.716;2022-07-06T05:11:56;16.50;59.30
26164;DHT22;13914;48.178;11.716;2022-07-06T05:14:22;16.50;59.30
26164;DHT22;13914;48.178;11.716;2022-07-06T05:16:48;16.50;59.20
26164;DHT22;13914;48.178;11.716;2022-07-06T05:19:14;16.50;59.30
26164;DHT22;13914;48.178;11.716;2022-07-06T05:21:40;16.60;59.20
26164;DHT22;13914;48.178;11.716;2022-07-06T05:24:06;16.60;59.10
26164;DHT22;13914;48.178;11.716;2022-07-06T05:26:32;16.60;59.20
26164;DHT22;13914;48.178;11.716;2022-07-06T05:28:57;16.70;59.60
26164;DHT22;13914;48.178;11.716;2022-07-06T05:31:23;16.70;59.40
26164;DHT22;13914;48.178;11.716;2022-07-06T05:33:49;16.70;59.30
26164;DHT22;13914;48.178;11.716;2022-07-06T05:36:15;16.80;61.10
26164;DHT22;13914;48.178;11.716;2022-07-06T05:38:42;16.80;60.30
26164;DHT22;13914;48.178;11.716;2022-07-06T05:41:08;16.80;60.80
26164;DHT22;13914;48.178;11.716;2022-07-06T05:43:37;16.90;60.50
26164;DHT22;13914;48.178;11.716;2022-07-06T05:46:03;16.90;60.60
26164;DHT22;13914;48.178;11.716;2022-07-06T05:48:29;17.00;60.30
26164;DHT22;13914;48.178;11.716;2022-07-06T05:51:14;17.00;60.00
26164;DHT22;13914;48.178;11.716;2022-07-06T05:53:40;17.00;60.40
26164;DHT22;13914;48.178;11.716;2022-07-06T05:56:06;17.10;59.60
26164;DHT22;13914;48.178;11.716;2022-07-06T05:58:32;17.10;60.60
26164;DHT22;13914;48.178;11.716;2022-07-06T06:00:58;17.10;60.40
26164;DHT22;13914;48.178;11.716;2022-07-06T06:03:24;17.20;59.90
26164;DHT22;13914;48.178;11.716;2022-07-06T06:05:50;17.20;60.20
26164;DHT22;13914;48.178;11.716;2022-07-06T06:08:16;17.20;60.30
26164;DHT22;13914;48.178;11.716;2022-07-06T06:10:42;17.30;60.00
26164;DHT22;13914;48.178;11.716;2022-07-06T06:13:08;17.40;60.50
26164;DHT22;13914;48.178;11.716;2022-07-06T06:15:34;17.40;60.80
26164;DHT22;13914;48.178;11.716;2022-07-06T06:18:00;17.40;60.60
26164;DHT22;13914;48.178;11.716;2022-07-06T06:20:26;17.50;60.60
26164;DHT22;13914;48.178;11.716;2022-07-06T06:22:54;17.60;61.10
26164;DHT22;13914;48.178;11.716;2022-07-06T06:25:31;17.60;60.90
26164;DHT22;13914;48.178;11.716;2022-07-06T06:27:57;17.70;61.00
26164;DHT22;13914;48.178;11.716;2022-07-06T06:30:23;17.70;60.60
26164;DHT22;13914;48.178;11.716;2022-07-06T06:32:49;17.80;62.30
26164;DHT22;13914;48.178;11.716;2022-07-06T06:35:15;17.80;62.10
26164;DHT22;13914;48.178;11.716;2022-07-06T06:37:41;17.80;60.80
26164;DHT22;13914;48.178;11.716;2022-07-06T06:40:08;17.90;61.90
26164;DHT22;13914;48.178;11.716;2022-07-06T06:42:37;18.00;62.60
26164;DHT22;13914;48.178;11.716;2022-07-06T06:45:06;18.10;62.80
26164;DHT22;13914;48.178;11.716;2022-07-06T06:47:32;18.20;62.10
26164;DHT22;13914;48.178;11.716;2022-07-06T06:49:57;18.30;61.20
26164;DHT22;13914;48.178;11.716;2022-07-06T06:52:23;18.40;61.20
26164;DHT22;13914;48.178;11.716;2022-07-06T06:54:49;18.50;60.70
26164;DHT22;13914;48.178;11.716;2022-07-06T06:57:15;18.70;60.00
26164;DHT22;13914;48.178;11.716;2022-07-06T06:59:40;18.80;60.30
26164;DHT22;13914;48.178;11.716;2022-07-06T07:02:06;19.00;60.00
26164;DHT22;13914;48.178;11.716;2022-07-06T07:04:32;19.10;60.00
26164;DHT22;13914;48.178;11.716;2022-07-06T07:06:58;19.30;59.80
26164;DHT22;13914;48.178;11.716;2022-07-06T07:09:24;19.50;59.90
26164;DHT22;13914;48.178;11.716;2022-07-06T07:11:49;19.60;59.90
26164;DHT22;13914;48.178;11.716;2022-07-06T07:14:15;19.80;59.40
26164;DHT22;13914;48.178;11.716;2022-07-06T07:16:42;19.90;59.30
26164;DHT22;13914;48.178;11.716;2022-07-06T07:19:08;20.10;59.20
26164;DHT22;13914;48.178;11.716;2022-07-06T07:21:34;20.30;59.20
26164;DHT22;13914;48.178;11.716;2022-07-06T07:24:00;20.50;58.70
26164;DHT22;13914;48.178;11.716;2022-07-06T07:26:26;20.70;58.30
26164;DHT22;13914;48.178;11.716;2022-07-06T07:28:51;20.90;58.80
26164;DHT22;13914;48.178;11.716;2022-07-06T07:31:17;21.10;58.50
26164;DHT22;13914;48.178;11.716;2022-07-06T07:33:43;21.30;58.10
26164;DHT22;13914;48.178;11.716;2022-07-06T07:36:09;21.50;58.20
26164;DHT22;13914;48.178;11.716;2022-07-06T07:38:34;21.70;57.60
26164;DHT22;13914;48.178;11.716;2022-07-06T07:41:00;21.90;57.00
26164;DHT22;13914;48.178;11.716;2022-07-06T07:43:26;22.10;56.50
26164;DHT22;13914;48.178;11.716;2022-07-06T07:45:52;22.40;56.80
26164;DHT22;13914;48.178;11.716;2022-07-06T07:48:18;22.60;56.10
26164;DHT22;13914;48.178;11.716;2022-07-06T07:50:43;22.70;55.30
26164;DHT22;13914;48.178;11.716;2022-07-06T07:53:09;22.90;55.80
26164;DHT22;13914;48.178;11.716;2022-07-06T07:55:35;23.10;55.40
26164;DHT22;13914;48.178;11.716;2022-07-06T07:58:01;23.40;55.10
26164;DHT22;13914;48.178;11.716;2022-07-06T08:00:27;23.50;53.80
26164;DHT22;13914;48.178;11.716;2022-07-06T08:02:54;23.70;53.80
26164;DHT22;13914;48.178;11.716;2022-07-06T08:05:21;23.80;53.40
26164;DHT22;13914;48.178;11.716;2022-07-06T08:07:46;24.00;52.80
26164;DHT22;13914;48.178;11.716;2022-07-06T08:10:12;24.10;53.10
26164;DHT22;13914;48.178;11.716;2022-07-06T08:12:38;24.30;52.60
26164;DHT22;13914;48.178;11.716;2022-07-06T08:15:05;24.50;52.70
26164;DHT22;13914;48.178;11.716;2022-07-06T08:17:31;24.60;52.70
26164;DHT22;13914;48.178;11.716;2022-07-06T08:19:57;24.80;52.10
26164;DHT22;13914;48.178;11.716;2022-07-06T08:22:23;24.90;51.10
26164;DHT22;13914;48.178;11.716;2022-07-06T08:24:49;25.00;50.50
26164;DHT22;13914;48.178;11.716;2022-07-06T08:27:15;25.20;51.60
26164;DHT22;13914;48.178;11.716;2022-07-06T08:29:42;25.30;51.40
26164;DHT22;13914;48.178;11.716;2022-07-06T08:32:07;25.50;51.20
26164;DHT22;13914;48.178;11.716;2022-07-06T08:34:33;25.60;49.60
26164;DHT22;13914;48.178;11.716;2022-07-06T08:36:59;25.80;51.50
26164;DHT22;13914;48.178;11.716;2022-07-06T08:39:25;25.90;50.30
26164;DHT22;13914;48.178;11.716;2022-07-06T08:41:51;26.00;49.40
26164;DHT22;13914;48.178;11.716;2022-07-06T08:44:17;26.10;49.40
26164;DHT22;13914;48.178;11.716;2022-07-06T08:46:44;26.30;50.80
26164;DHT22;13914;48.178;11.716;2022-07-06T08:49:14;26.40;50.70
26164;DHT22;13914;48.178;11.716;2022-07-06T08:51:41;26.70;49.50
26164;DHT22;13914;48.178;11.716;2022-07-06T08:54:08;26.80;49.30
26164;DHT22;13914;48.178;11.716;2022-07-06T08:56:34;26.80;47.80
26164;DHT22;13914;48.178;11.716;2022-07-06T08:59:00;26.80;49.50
26164;DHT22;13914;48.178;11.716;2022-07-06T09:01:27;27.00;47.50
26164;DHT22;13914;48.178;11.716;2022-07-06T09:03:54;27.10;46.60
26164;DHT22;13914;48.178;11.716;2022-07-06T09:06:26;27.10;46.70
26164;DHT22;13914;48.178;11.716;2022-07-06T09:08:57;27.10;45.10
26164;DHT22;13914;48.178;11.716;2022-07-06T09:11:24;27.00;45.40
26164;DHT22;13914;48.178;11.716;2022-07-06T09:13:51;27.10;45.10
26164;DHT22;13914;48.178;11.716;2022-07-06T09:16:17;27.20;45.10
26164;DHT22;13914;48.178;11.716;2022-07-06T09:18:43;27.30;45.60
26164;DHT22;13914;48.178;11.716;2022-07-06T09:21:10;27.50;46.00
26164;DHT22;13914;48.178;11.716;2022-07-06T09:23:37;27.70;48.20
26164;DHT22;13914;48.178;11.716;2022-07-06T09:26:05;27.90;45.90
26164;DHT22;13914;48.178;11.716;2022-07-06T09:28:44;28.10;45.50
26164;DHT22;13914;48.178;11.716;2022-07-06T09:31:11;28.10;46.00
26164;DHT22;13914;48.178;11.716;2022-07-06T09:33:38;28.30;47.00
26164;DHT22;13914;48.178;11.716;2022-07-06T09:36:04;28.50;47.10
26164;DHT22;13914;48.178;11.716;2022-07-06T09:38:31;28.50;42.30
26164;DHT22;13914;48.178;11.716;2022-07-06T09:40:57;28.50;44.10
26164;DHT22;13914;48.178;11.716;2022-07-06T09:43:24;28.60;44.10
26164;DHT22;13914;48.178;11.716;2022-07-06T09:45:54;28.70;44.80
26164;DHT22;13914;48.178;11.716;2022-07-06T09:48:25;28.80;44.80
26164;DHT22;13914;48.178;11.716;2022-07-06T09:51:02;29.00;44.80
26164;DHT22;13914;48.178;11.716;2022-07-06T09:53:28;29.10;44.40
26164;DHT22;13914;48.178;11.716;2022-07-06T09:55:55;29.20;44.80
26164;DHT22;13914;48.178;11.716;2022-07-06T09:58:24;29.30;44.60
26164;DHT22;13914;48.178;11.716;2022-07-06T10:00:50;29.40;42.90
26164;DHT22;13914;48.178;11.716;2022-07-06T10:03:17;29.40;41.90
26164;DHT22;13914;48.178;11.716;2022-07-06T10:05:46;29.30;41.60
26164;DHT22;13914;48.178;11.716;2022-07-06T10:08:14;29.50;41.50
26164;DHT22;13914;48.178;11.716;2022-07-06T10:10:42;29.60;42.50
26164;DHT22;13914;48.178;11.716;2022-07-06T10:13:09;29.80;42.10
26164;DHT22;13914;48.178;11.716;2022-07-06T10:15:40;29.80;40.40
26164;DHT22;13914;48.178;11.716;2022-07-06T10:18:08;29.90;41.70
26164;DHT22;13914;48.178;11.716;2022-07-06T10:20:36;30.00;41.30
26164;DHT22;13914;48.178;11.716;2022-07-06T10:23:05;30.10;42.60
26164;DHT22;13914;48.178;11.716;2022-07-06T10:25:33;30.30;42.20
26164;DHT22;13914;48.178;11.716;2022-07-06T10:28:00;30.40;40.90
26164;DHT22;13914;48.178;11.716;2022-07-06T10:30:27;30.40;40.50
26164;DHT22;13914;48.178;11.716;2022-07-06T10:32:56;30.40;40.80
26164;DHT22;13914;48.178;11.716;2022-07-06T10:35:22;30.40;37.70
26164;DHT22;13914;48.178;11.716;2022-07-06T10:38:04;30.30;39.20
26164;DHT22;13914;48.178;11.716;2022-07-06T10:40:38;30.40;38.30
26164;DHT22;13914;48.178;11.716;2022-07-06T10:43:30;30.40;37.10
26164;DHT22;13914;48.178;11.716;2022-07-06T10:45:57;30.20;36.00
26164;DHT22;13914;48.178;11.716;2022-07-06T10:48:22;30.30;40.70
26164;DHT22;13914;48.178;11.716;2022-07-06T10:50:53;30.40;37.80
26164;DHT22;13914;48.178;11.716;2022-07-06T10:53:26;30.50;39.20
26164;DHT22;13914;48.178;11.716;2022-07-06T10:55:56;30.70;38.30
26164;DHT22;13914;48.178;11.716;2022-07-06T10:58:50;30.70;38.10
26164;DHT22;13914;48.178;11.716;2022-07-06T11:01:18;30.60;38.00
26164;DHT22;13914;48.178;11.716;2022-07-06T11:06:25;30.60;38.70
26164;DHT22;13914;48.178;11.716;2022-07-06T11:08:59;30.50;38.10
26164;DHT22;13914;48.178;11.716;2022-07-06T11:14:06;30.30;37.30
26164;DHT22;13914;48.178;11.716;2022-07-06T11:16:38;30.30;40.40
26164;DHT22;13914;48.178;11.716;2022-07-06T11:19:11;30.40;37.90
26164;DHT22;13914;48.178;11.716;2022-07-06T11:22:24;30.30;39.10
26164;DHT22;13914;48.178;11.716;2022-07-06T11:24:45;30.30;40.80
26164;DHT22;13914;48.178;11.716;2022-07-06T11:27:12;30.50;41.40
26164;DHT22;13914;48.178;11.716;2022-07-06T11:29:38;30.40;39.50
26164;DHT22;13914;48.178;11.716;2022-07-06T11:32:06;30.30;40.40
26164;DHT22;13914;48.178;11.716;2022-07-06T11:34:37;30.30;40.70
26164;DHT22;13914;48.178;11.716;2022-07-06T11:37:11;30.20;39.80
26164;DHT22;13914;48.178;11.716;2022-07-06T11:39:39;30.20;39.20
26164;DHT22;13914;48.178;11.716;2022-07-06T11:42:07;30.20;40.60
26164;DHT22;13914;48.178;11.716;2022-07-06T11:44:34;30.10;38.90
26164;DHT22;13914;48.178;11.716;2022-07-06T11:47:02;30.00;39.80
26164;DHT22;13914;48.178;11.716;2022-07-06T11:49:32;30.10;41.50
26164;DHT22;13914;48.178;11.716;2022-07-06T11:52:04;30.10;40.10
26164;DHT22;13914;48.178;11.716;2022-07-06T11:54:34;30.20;40.60
26164;DHT22;13914;48.178;11.716;2022-07-06T11:57:01;30.20;41.40
26164;DHT22;13914;48.178;11.716;2022-07-06T11:59:37;30.30;41.50
26164;DHT22;13914;48.178;11.716;2022-07-06T12:02:06;30.30;41.30
26164;DHT22;13914;48.178;11.716;2022-07-06T12:04:35;30.30;40.90
26164;DHT22;13914;48.178;11.716;2022-07-06T12:07:08;30.20;38.20
26164;DHT22;13914;48.178;11.716;2022-07-06T12:09:38;30.00;37.00
26164;DHT22;13914;48.178;11.716;2022-07-06T12:12:06;29.90;37.30
26164;DHT22;13914;48.178;11.716;2022-07-06T12:14:35;30.00;39.10
26164;DHT22;13914;48.178;11.716;2022-07-06T12:17:07;30.20;37.70
26164;DHT22;13914;48.178;11.716;2022-07-06T12:19:37;30.20;37.40
26164;DHT22;13914;48.178;11.716;2022-07-06T12:22:04;30.30;36.90
26164;DHT22;13914;48.178;11.716;2022-07-06T12:24:31;30.30;37.80
26164;DHT22;13914;48.178;11.716;2022-07-06T12:27:19;30.30;37.30
26164;DHT22;13914;48.178;11.716;2022-07-06T12:29:47;30.30;35.90
26164;DHT22;13914;48.178;11.716;2022-07-06T12:32:18;30.30;36.10
26164;DHT22;13914;48.178;11.716;2022-07-06T12:34:44;30.20;35.00
26164;DHT22;13914;48.178;11.716;2022-07-06T12:37:11;30.00;35.50
26164;DHT22;13914;48.178;11.716;2022-07-06T12:39:46;29.90;34.80
26164;DHT22;13914;48.178;11.716;2022-07-06T12:42:17;29.90;35.70
26164;DHT22;13914;48.178;11.716;2022-07-06T12:44:48;29.90;36.80
26164;DHT22;13914;48.178;11.716;2022-07-06T12:47:22;29.90;37.20
26164;DHT22;13914;48.178;11.716;2022-07-06T12:50:04;30.00;37.70
26164;DHT22;13914;48.178;11.716;2022-07-06T12:52:31;30.10;38.50
26164;DHT22;13914;48.178;11.716;2022-07-06T12:54:59;30.10;37.50
26164;DHT22;13914;48.178;11.716;2022-07-06T12:57:26;30.10;37.10
26164;DHT22;13914;48.178;11.716;2022-07-06T13:02:23;29.80;36.50
26164;DHT22;13914;48.178;11.716;2022-07-06T13:05:03;29.80;35.90
26164;DHT22;13914;48.178;11.716;2022-07-06T13:07:35;29.70;34.20
26164;DHT22;13914;48.178;11.716;2022-07-06T13:10:07;29.70;34.90
26164;DHT22;13914;48.178;11.716;2022-07-06T13:12:34;29.60;34.70
26164;DHT22;13914;48.178;11.716;2022-07-06T13:15:00;29.50;34.60
26164;DHT22;13914;48.178;11.716;2022-07-06T13:17:26;29.50;34.30
26164;DHT22;13914;48.178;11.716;2022-07-06T13:19:52;29.50;34.50
26164;DHT22;13914;48.178;11.716;2022-07-06T13:22:18;29.50;37.80
26164;DHT22;13914;48.178;11.716;2022-07-06T13:24:44;29.50;35.30
26164;DHT22;13914;48.178;11.716;2022-07-06T13:27:10;29.40;35.70
26164;DHT22;13914;48.178;11.716;2022-07-06T13:29:36;29.50;36.20
26164;DHT22;13914;48.178;11.716;2022-07-06T13:32:02;29.50;35.80
26164;DHT22;13914;48.178;11.716;2022-07-06T13:34:29;29.40;36.40
26164;DHT22;13914;48.178;11.716;2022-07-06T13:36:55;29.40;35.90
26164;DHT22;13914;48.178;11.716;2022-07-06T13:39:21;29.30;34.80
26164;DHT22;13914;48.178;11.716;2022-07-06T13:41:47;29.30;37.10
26164;DHT22;13914;48.178;11.716;2022-07-06T13:44:12;29.30;34.10
26164;DHT22;13914;48.178;11.716;2022-07-06T13:46:38;29.20;34.20
26164;DHT22;13914;48.178;11.716;2022-07-06T13:49:05;29.20;35.00
26164;DHT22;13914;48.178;11.716;2022-07-06T13:51:31;29.20;34.70
26164;DHT22;13914;48.178;11.716;2022-07-06T13:53:58;29.30;38.60
26164;DHT22;13914;48.178;11.716;2022-07-06T13:56:24;29.30;38.10
26164;DHT22;13914;48.178;11.716;2022-07-06T13:58:51;29.30;39.40
26164;DHT22;13914;48.178;11.716;2022-07-06T14:01:17;29.30;38.70
26164;DHT22;13914;48.178;11.716;2022-07-06T14:03:44;29.30;35.40
26164;DHT22;13914;48.178;11.716;2022-07-06T14:06:11;29.10;35.70
26164;DHT22;13914;48.178;11.716;2022-07-06T14:08:38;29.00;35.60
26164;DHT22;13914;48.178;11.716;2022-07-06T14:11:06;28.80;35.20
26164;DHT22;13914;48.178;11.716;2022-07-06T14:13:33;28.70;36.10
26164;DHT22;13914;48.178;11.716;2022-07-06T14:15:59;28.70;35.20
26164;DHT22;13914;48.178;11.716;2022-07-06T14:18:25;28.60;35.50
26164;DHT22;13914;48.178;11.716;2022-07-06T14:20:51;28.50;35.90
26164;DHT22;13914;48.178;11.716;2022-07-06T14:23:19;28.50;35.60
26164;DHT22;13914;48.178;11.716;2022-07-06T14:25:46;28.40;36.20
26164;DHT22;13914;48.178;11.716;2022-07-06T14:28:13;28.20;35.70
26164;DHT22;13914;48.178;11.716;2022-07-06T14:30:42;28.20;37.30
26164;DHT22;13914;48.178;11.716;2022-07-06T14:33:11;28.20;37.40
26164;DHT22;13914;48.178;11.716;2022-07-06T14:35:46;28.20;35.80
26164;DHT22;13914;48.178;11.716;2022-07-06T14:38:15;28.00;35.50
26164;DHT22;13914;48.178;11.716;2022-07-06T14:40:42;27.90;35.00
26164;DHT22;13914;48.178;11.716;2022-07-06T14:43:08;27.90;36.20
26164;DHT22;13914;48.178;11.716;2022-07-06T14:45:34;27.80;35.70
26164;DHT22;13914;48.178;11.716;2022-07-06T14:48:00;27.70;36.30
26164;DHT22;13914;48.178;11.716;2022-07-06T14:50:26;27.70;36.90
26164;DHT22;13914;48.178;11.716;2022-07-06T14:52:53;27.60;36.70
26164;DHT22;13914;48.178;11.716;2022-07-06T14:55:24;27.50;36.40
26164;DHT22;13914;48.178;11.716;2022-07-06T14:58:08;27.50;37.30
26164;DHT22;13914;48.178;11.716;2022-07-06T15:00:35;27.40;36.40
26164;DHT22;13914;48.178;11.716;2022-07-06T15:03:02;27.30;35.40
26164;DHT22;13914;48.178;11.716;2022-07-06T15:05:29;27.30;36.20
26164;DHT22;13914;48.178;11.716;2022-07-06T15:07:57;27.20;36.20
26164;DHT22;13914;48.178;11.716;2022-07-06T15:10:23;27.10;36.40
26164;DHT22;13914;48.178;11.716;2022-07-06T15:12:49;27.00;36.70
26164;DHT22;13914;48.178;11.716;2022-07-06T15:15:15;27.10;37.00
26164;DHT22;13914;48.178;11.716;2022-07-06T15:17:40;27.10;37.90
26164;DHT22;13914;48.178;11.716;2022-07-06T15:20:07;27.10;37.70
26164;DHT22;13914;48.178;11.716;2022-07-06T15:22:33;27.00;37.40
26164;DHT22;13914;48.178;11.716;2022-07-06T15:25:01;26.90;37.30